createdAt,value
2022-09-10T00:00:44.439Z,100874.44
2022-09-10T00:03:11.791Z,100876.09
2022-09-10T00:05:44.126Z,100882.13
2022-09-10T00:08:11.418Z,100879.63
2022-09-10T00:10:47.971Z,100888.03
2022-09-10T00:13:17.313Z,100881.03
2022-09-10T00:15:50.172Z,100888.22
2022-09-10T00:18:19.501Z,100886.88
2022-09-10T00:20:54.818Z,100888.75
2022-09-10T00:23:25.867Z,100893.31
2022-09-10T00:25:55.162Z,100891.78
2022-09-10T00:28:24.269Z,100887.13
2022-09-10T00:30:54.563Z,100877.84
2022-09-10T00:33:22.986Z,100880.56
2022-09-10T00:35:51.261Z,100879.47
2022-09-10T00:38:18.713Z,100878.06
2022-09-10T00:40:46.876Z,100875.34
2022-09-10T00:43:16.860Z,100875.19
2022-09-10T00:45:44.755Z,100875.72
2022-09-10T00:48:16.692Z,100874.50
2022-09-10T00:50:46.518Z,100872.75
2022-09-10T00:53:16.448Z,100874.81
2022-09-10T00:55:45.533Z,100862.94
2022-09-10T00:58:14.013Z,100857.63
2022-09-10T01:00:42.027Z,100862.25
2022-09-10T01:03:11.313Z,100864.50
2022-09-10T01:05:42.496Z,100862.25
2022-09-10T01:08:15.206Z,100873.75
2022-09-10T01:11:16.515Z,100866.44
2022-09-10T01:14:15.685Z,100863.38
2022-09-10T01:16:53.597Z,100851.69
2022-09-10T01:19:32.810Z,100857.19
2022-09-10T01:22:22.472Z,100854.50
2022-09-10T01:24:54.517Z,100860.22
2022-09-10T01:27:30.954Z,100859.28
2022-09-10T01:30:04.438Z,100862.25
2022-09-10T01:32:39.905Z,100862.75
2022-09-10T01:35:22.302Z,100866.09
2022-09-10T01:37:54.594Z,100863.94
2022-09-10T01:40:29.703Z,100861.44
2022-09-10T01:43:07.378Z,100866.19
2022-09-10T01:45:58.022Z,100863.22
2022-09-10T01:48:56.024Z,100869.59
2022-09-10T01:51:26.380Z,100860.78
2022-09-10T01:54:26.305Z,100866.97
2022-09-10T01:57:05.124Z,100864.66
2022-09-10T01:59:46.965Z,100874.72
2022-09-10T02:02:37.531Z,100872.94
2022-09-10T02:05:06.252Z,100874.91
2022-09-10T02:07:35.467Z,100871.38
2022-09-10T02:10:07.358Z,100868.78
2022-09-10T02:12:40.070Z,100865.63
2022-09-10T02:15:34.813Z,100866.44
2022-09-10T02:18:22.403Z,100870.09
2022-09-10T02:20:51.705Z,100863.22
2022-09-10T02:23:46.517Z,100864.94
2022-09-10T02:26:14.930Z,100862.94
2022-09-10T02:28:45.537Z,100867.94
2022-09-10T02:31:13.326Z,100857.47
2022-09-10T02:33:41.289Z,100867.09
2022-09-10T02:36:08.644Z,100878.50
2022-09-10T02:38:35.944Z,100862.50
2022-09-10T02:41:03.480Z,100867.38
2022-09-10T02:43:31.854Z,100864.84
2022-09-10T02:46:02.370Z,100873.47
2022-09-10T02:48:31.069Z,100862.84
2022-09-10T02:50:58.878Z,100860.88
2022-09-10T02:53:29.325Z,100866.28
2022-09-10T02:55:58.484Z,100859.63
2022-09-10T02:58:25.807Z,100871.81
2022-09-10T03:00:53.432Z,100873.31
2022-09-10T03:03:20.703Z,100874.75
2022-09-10T03:05:48.366Z,100871.25
2022-09-10T03:08:16.036Z,100876.13
2022-09-10T03:10:46.014Z,100878.13
2022-09-10T03:13:13.150Z,100875.81
2022-09-10T03:15:42.459Z,100880.22
2022-09-10T03:18:10.048Z,100874.00
2022-09-10T03:20:41.867Z,100880.41
2022-09-10T03:23:11.327Z,100880.03
2022-09-10T03:25:38.765Z,100882.72
2022-09-10T03:28:08.196Z,100876.38
2022-09-10T03:30:36.580Z,100874.38
2022-09-10T03:33:04.735Z,100873.31
2022-09-10T03:35:32.175Z,100877.25
2022-09-10T03:38:02.384Z,100874.19
2022-09-10T03:40:29.700Z,100872.22
2022-09-10T03:42:57.109Z,100876.34
2022-09-10T03:45:24.467Z,100879.94
2022-09-10T03:47:51.991Z,100876.69
2022-09-10T03:50:20.402Z,100874.03
2022-09-10T03:52:47.647Z,100885.88
2022-09-10T03:55:17.912Z,100882.81
2022-09-10T03:57:46.032Z,100889.56
2022-09-10T04:00:15.411Z,100887.78
2022-09-10T04:02:44.102Z,100887.50
2022-09-10T04:05:12.970Z,100884.38
2022-09-10T04:07:40.486Z,100885.19
2022-09-10T04:10:08.193Z,100889.94
2022-09-10T04:12:36.365Z,100886.88
2022-09-10T04:15:06.406Z,100889.88
2022-09-10T04:17:34.871Z,100884.63
2022-09-10T04:20:02.997Z,100890.41
2022-09-10T04:22:35.817Z,100889.22
2022-09-10T04:25:03.808Z,100890.53
2022-09-10T04:27:31.739Z,100893.59
2022-09-10T04:29:58.994Z,100899.34
2022-09-10T04:32:26.263Z,100892.09
2022-09-10T04:34:54.321Z,100894.06
2022-09-10T04:37:21.932Z,100891.09
2022-09-10T04:39:49.421Z,100890.91
2022-09-10T04:42:17.933Z,100890.22
2022-09-10T04:44:49.484Z,100886.84
2022-09-10T04:47:17.321Z,100896.56
2022-09-10T04:49:44.647Z,100890.84
2022-09-10T04:52:13.334Z,100895.97
2022-09-10T04:54:40.782Z,100896.25
2022-09-10T04:57:08.515Z,100898.47
2022-09-10T04:59:36.567Z,100898.56
2022-09-10T05:02:04.003Z,100900.63
2022-09-10T05:04:31.229Z,100902.97
2022-09-10T05:07:01.446Z,100905.56
2022-09-10T05:09:31.364Z,100910.41
2022-09-10T05:12:01.177Z,100913.66
2022-09-10T05:14:29.490Z,100915.66
2022-09-10T05:16:57.584Z,100918.09
2022-09-10T05:19:25.268Z,100920.13
2022-09-10T05:22:00.215Z,100921.03
2022-09-10T05:24:27.430Z,100925.00
2022-09-10T05:26:56.898Z,100924.63
2022-09-10T05:29:24.359Z,100930.00
2022-09-10T05:31:52.012Z,100925.72
2022-09-10T05:34:20.482Z,100929.69
2022-09-10T05:36:48.794Z,100928.25
2022-09-10T05:39:16.469Z,100928.88
2022-09-10T05:41:43.966Z,100934.91
2022-09-10T05:44:11.302Z,100927.16
2022-09-10T05:46:40.476Z,100923.13
2022-09-10T05:49:13.447Z,100929.16
2022-09-10T05:51:41.573Z,100942.00
2022-09-10T05:54:09.606Z,100946.25
2022-09-10T05:56:37.050Z,100948.78
2022-09-10T05:59:04.431Z,100948.13
2022-09-10T06:01:33.318Z,100952.25
2022-09-10T06:04:03.032Z,100953.06
2022-09-10T06:06:31.058Z,100953.72
2022-09-10T06:09:04.475Z,100956.59
2022-09-10T06:11:42.991Z,100960.47
2022-09-10T06:14:10.983Z,100962.63
2022-09-10T06:16:38.267Z,100965.75
2022-09-10T06:19:08.364Z,100979.81
2022-09-10T06:21:36.761Z,100984.38
2022-09-10T06:24:04.730Z,100991.72
2022-09-10T06:26:37.519Z,100991.72
2022-09-10T06:29:10.065Z,100981.66
2022-09-10T06:31:38.792Z,100978.06
2022-09-10T06:34:07.514Z,100983.28
2022-09-10T06:36:35.139Z,100982.31
2022-09-10T06:39:03.652Z,100992.13
2022-09-10T06:41:45.846Z,100983.59
2022-09-10T06:44:31.649Z,100993.88
2022-09-10T06:47:55.463Z,100984.25
2022-09-10T06:50:00.452Z,100994.41
2022-09-10T06:52:29.471Z,100989.13
2022-09-10T06:55:02.131Z,100992.75
2022-09-10T06:57:38.130Z,100993.94
2022-09-10T07:00:06.054Z,100997.47
2022-09-10T07:02:34.146Z,100995.44
2022-09-10T07:05:01.581Z,101000.59
2022-09-10T07:07:30.422Z,101002.47
2022-09-10T07:09:58.338Z,101002.44
2022-09-10T07:12:25.907Z,101010.38
2022-09-10T07:14:53.396Z,101012.00
2022-09-10T07:17:22.087Z,101016.78
2022-09-10T07:19:49.371Z,101014.91
2022-09-10T07:22:38.023Z,101021.31
2022-09-10T07:25:08.709Z,101021.59
2022-09-10T07:27:52.620Z,101019.13
2022-09-10T07:30:22.254Z,101020.50
2022-09-10T07:32:50.961Z,101020.47
2022-09-10T07:35:23.073Z,101023.34
2022-09-10T07:37:51.388Z,101028.84
2022-09-10T07:40:20.278Z,101026.03
2022-09-10T07:42:47.836Z,101016.84
2022-09-10T07:45:16.170Z,101023.81
2022-09-10T07:47:44.720Z,101028.44
2022-09-10T07:50:13.102Z,101034.09
2022-09-10T07:52:41.467Z,101039.75
2022-09-10T07:55:10.036Z,101043.19
2022-09-10T07:57:39.759Z,101042.88
2022-09-10T08:00:14.930Z,101049.56
2022-09-10T08:02:50.286Z,101050.75
2022-09-10T08:05:20.423Z,101052.81
2022-09-10T08:07:48.242Z,101057.97
2022-09-10T08:10:15.835Z,101055.44
2022-09-10T08:12:43.889Z,101061.81
2022-09-10T08:15:12.831Z,101056.69
2022-09-10T08:17:41.479Z,101058.16
2022-09-10T08:20:10.218Z,101059.41
2022-09-10T08:22:40.878Z,101064.25
2022-09-10T08:25:08.393Z,101062.44
2022-09-10T08:27:37.299Z,101062.25
2022-09-10T08:30:07.296Z,101054.94
2022-09-10T08:32:35.982Z,101062.59
2022-09-10T08:35:05.015Z,101060.47
2022-09-10T08:37:33.888Z,101060.38
2022-09-10T08:40:03.260Z,101063.81
2022-09-10T08:42:37.006Z,101075.13
2022-09-10T08:45:07.225Z,101072.53
2022-09-10T08:47:36.147Z,101074.59
2022-09-10T08:50:15.673Z,101076.03
2022-09-10T08:52:44.392Z,101077.69
2022-09-10T08:55:19.845Z,101081.63
2022-09-10T08:57:59.349Z,101080.06
2022-09-10T09:00:33.181Z,101078.16
2022-09-10T09:03:13.053Z,101085.09
2022-09-10T09:05:46.821Z,101091.13
2022-09-10T09:08:27.619Z,101095.78
2022-09-10T09:11:11.196Z,101093.06
2022-09-10T09:14:03.193Z,101095.31
2022-09-10T09:17:11.124Z,101100.00
2022-09-10T09:19:54.298Z,101104.13
2022-09-10T09:22:42.049Z,101109.38
2022-09-10T09:25:27.225Z,101106.59
2022-09-10T09:27:58.683Z,101109.31
2022-09-10T09:30:35.602Z,101112.53
2022-09-10T09:33:13.002Z,101113.44
2022-09-10T09:35:53.109Z,101121.63
2022-09-10T09:38:28.677Z,101120.81
2022-09-10T09:41:00.826Z,101120.28
2022-09-10T09:43:31.407Z,101120.19
2022-09-10T09:46:00.173Z,101117.41
2022-09-10T09:48:38.317Z,101124.16
2022-09-10T09:51:08.783Z,101121.88
2022-09-10T09:53:36.190Z,101122.81
2022-09-10T09:56:18.273Z,101132.00
2022-09-10T09:58:49.533Z,101123.25
2022-09-10T10:01:19.490Z,101133.63
2022-09-10T10:03:51.645Z,101136.13
2022-09-10T10:06:24.779Z,101140.72
2022-09-10T10:09:00.491Z,101137.75
2022-09-10T10:11:50.273Z,101138.94
2022-09-10T10:14:20.561Z,101143.16
2022-09-10T10:16:52.309Z,101141.16
2022-09-10T10:19:35.804Z,101132.97
2022-09-10T10:22:18.214Z,101144.44
2022-09-10T10:24:47.483Z,101154.31
2022-09-10T10:27:32.063Z,101147.75
2022-09-10T10:30:04.382Z,101144.22
2022-09-10T10:32:44.791Z,101144.97
2022-09-10T10:35:12.047Z,101140.34
2022-09-10T10:38:04.033Z,101147.13
2022-09-10T10:40:38.607Z,101141.72
2022-09-10T10:43:26.400Z,101141.06
2022-09-10T10:46:01.593Z,101144.50
2022-09-10T10:49:06.110Z,101143.03
2022-09-10T10:51:53.912Z,101143.09
2022-09-10T10:54:43.713Z,101142.53
2022-09-10T10:57:25.511Z,101137.47
2022-09-10T11:00:07.674Z,101147.75
2022-09-10T11:02:43.602Z,101142.34
2022-09-10T11:05:18.825Z,101137.78
2022-09-10T11:07:47.429Z,101145.16
2022-09-10T11:10:27.246Z,101133.97
2022-09-10T11:13:06.947Z,101134.25
2022-09-10T11:15:37.296Z,101134.06
2022-09-10T11:18:13.474Z,101124.69
2022-09-10T11:20:59.264Z,101126.13
2022-09-10T11:23:29.784Z,101121.53
2022-09-10T11:26:19.503Z,101132.19
2022-09-10T11:28:55.700Z,101119.16
2022-09-10T11:32:10.446Z,101112.28
2022-09-10T11:35:04.437Z,101127.06
2022-09-10T11:38:08.994Z,101128.00
2022-09-10T11:40:42.100Z,101124.81
2022-09-10T11:43:43.451Z,101115.25
2022-09-10T11:46:16.826Z,101121.34
2022-09-10T11:48:51.096Z,101120.50
2022-09-10T11:51:30.515Z,101124.91
2022-09-10T11:53:58.138Z,101118.19
2022-09-10T11:56:49.917Z,101121.25
2022-09-10T11:59:27.084Z,101120.75
2022-09-10T12:02:03.695Z,101124.66
2022-09-10T12:04:47.704Z,101126.09
2022-09-10T12:07:42.461Z,101111.63
2022-09-10T12:10:32.869Z,101107.66
2022-09-10T12:13:00.710Z,101117.63
2022-09-10T12:15:34.493Z,101123.59
2022-09-10T12:18:04.312Z,101120.78
2022-09-10T12:20:34.745Z,101120.50
2022-09-10T12:23:02.251Z,101119.44
2022-09-10T12:25:34.338Z,101120.81
2022-09-10T12:28:06.418Z,101124.28
2022-09-10T12:30:33.677Z,101108.34
2022-09-10T12:33:12.925Z,101112.25
2022-09-10T12:35:48.343Z,101110.09
2022-09-10T12:38:55.099Z,101109.81
2022-09-10T12:41:25.198Z,101115.34
2022-09-10T12:43:56.068Z,101115.28
2022-09-10T12:46:25.425Z,101106.06
2022-09-10T12:48:56.110Z,101109.53
2022-09-10T12:51:46.229Z,101110.94
2022-09-10T12:54:22.529Z,101114.00
2022-09-10T12:57:17.456Z,101112.31
2022-09-10T13:00:12.405Z,101106.84
2022-09-10T13:02:48.008Z,101119.41
2022-09-10T13:05:19.329Z,101112.59
2022-09-10T13:07:49.202Z,101100.47
2022-09-10T13:10:25.324Z,101115.97
2022-09-10T13:12:55.710Z,101108.03
2022-09-10T13:15:25.742Z,101110.00
2022-09-10T13:17:53.912Z,101106.88
2022-09-10T13:20:21.032Z,101112.59
2022-09-10T13:23:15.614Z,101113.16
2022-09-10T13:25:44.838Z,101111.34
2022-09-10T13:28:30.475Z,101111.66
2022-09-10T13:31:11.277Z,101114.19
2022-09-10T13:33:51.213Z,101113.91
2022-09-10T13:36:49.392Z,101110.19
2022-09-10T13:39:23.700Z,101118.16
2022-09-10T13:42:15.076Z,101119.81
2022-09-10T13:45:20.918Z,101114.50
2022-09-10T13:47:53.621Z,101117.06
2022-09-10T13:50:28.752Z,101115.66
2022-09-10T13:52:58.807Z,101120.25
2022-09-10T13:55:28.555Z,101109.81
2022-09-10T13:58:01.431Z,101124.38
2022-09-10T14:00:40.982Z,101121.72
2022-09-10T14:03:16.637Z,101130.56
2022-09-10T14:05:48.151Z,101125.50
2022-09-10T14:08:31.397Z,101122.88
2022-09-10T14:11:07.700Z,101131.97
2022-09-10T14:13:43.624Z,101135.19
2022-09-10T14:16:12.799Z,101145.16
2022-09-10T14:18:48.368Z,101150.16
2022-09-10T14:21:17.968Z,101146.00
2022-09-10T14:23:46.960Z,101148.66
2022-09-10T14:26:19.877Z,101158.06
2022-09-10T14:28:56.291Z,101161.25
2022-09-10T14:31:30.078Z,101161.59
2022-09-10T14:33:59.434Z,101168.34
2022-09-10T14:36:31.552Z,101164.50
2022-09-10T14:39:22.704Z,101166.25
2022-09-10T14:42:21.797Z,101156.28
2022-09-10T14:44:49.778Z,101161.06
2022-09-10T14:47:29.959Z,101154.16
2022-09-10T14:50:27.172Z,101152.63
2022-09-10T14:52:55.410Z,101148.75
2022-09-10T14:55:25.264Z,101150.56
2022-09-10T14:57:54.175Z,101146.13
2022-09-10T15:00:22.427Z,101143.25
2022-09-10T15:02:55.903Z,101151.06
2022-09-10T15:05:24.687Z,101149.53
2022-09-10T15:07:51.857Z,101144.66
2022-09-10T15:10:19.171Z,101144.81
2022-09-10T15:12:49.801Z,101132.41
2022-09-10T15:15:17.782Z,101129.25
2022-09-10T15:17:45.264Z,101142.78
2022-09-10T15:20:14.614Z,101140.50
2022-09-10T15:22:41.829Z,101140.22
2022-09-10T15:25:26.056Z,101142.16
2022-09-10T15:27:53.374Z,101141.53
2022-09-10T15:30:20.924Z,101143.19
2022-09-10T15:32:48.204Z,101142.25
2022-09-10T15:35:15.572Z,101138.13
2022-09-10T15:37:42.749Z,101135.53
2022-09-10T15:40:11.017Z,101139.81
2022-09-10T15:42:38.293Z,101141.38
2022-09-10T15:45:05.883Z,101139.22
2022-09-10T15:47:33.606Z,101145.41
2022-09-10T15:50:00.996Z,101145.84
2022-09-10T15:52:28.200Z,101140.72
2022-09-10T15:54:55.426Z,101144.97
2022-09-10T15:57:22.755Z,101140.16
2022-09-10T15:59:50.207Z,101147.56
2022-09-10T16:02:18.423Z,101143.94
2022-09-10T16:04:45.622Z,101151.28
2022-09-10T16:07:14.437Z,101148.03
2022-09-10T16:09:43.489Z,101142.34
2022-09-10T16:12:10.859Z,101150.38
2022-09-10T16:14:38.271Z,101145.38
2022-09-10T16:17:10.570Z,101150.34
2022-09-10T16:19:38.678Z,101140.44
2022-09-10T16:22:06.133Z,101150.44
2022-09-10T16:24:33.489Z,101145.59
2022-09-10T16:27:00.768Z,101152.94
2022-09-10T16:29:32.398Z,101143.19
2022-09-10T16:32:00.262Z,101134.59
2022-09-10T16:34:27.513Z,101121.50
2022-09-10T16:36:54.907Z,101133.31
2022-09-10T16:39:22.312Z,101145.63
2022-09-10T16:41:50.738Z,101152.44
2022-09-10T16:44:18.558Z,101152.50
2022-09-10T16:46:47.183Z,101151.47
2022-09-10T16:49:18.144Z,101152.38
2022-09-10T16:51:46.775Z,101145.81
2022-09-10T16:54:14.953Z,101154.16
2022-09-10T16:56:44.121Z,101156.69
2022-09-10T16:59:31.726Z,101158.81
2022-09-10T17:02:00.573Z,101157.09
2022-09-10T17:04:29.128Z,101165.47
2022-09-10T17:06:57.648Z,101162.00
2022-09-10T17:09:25.232Z,101163.41
2022-09-10T17:11:56.120Z,101166.06
2022-09-10T17:14:24.409Z,101162.47
2022-09-10T17:16:52.221Z,101166.63
2022-09-10T17:19:23.440Z,101173.66
2022-09-10T17:21:53.292Z,101162.66
2022-09-10T17:24:22.451Z,101165.97
2022-09-10T17:26:50.441Z,101177.59
2022-09-10T17:29:20.282Z,101175.88
2022-09-10T17:31:47.605Z,101178.25
2022-09-10T17:34:16.280Z,101177.31
2022-09-10T17:36:45.707Z,101180.41
2022-09-10T17:39:13.686Z,101185.34
2022-09-10T17:41:41.479Z,101185.59
2022-09-10T17:44:09.835Z,101185.41
2022-09-10T17:46:37.946Z,101181.28
2022-09-10T17:49:05.538Z,101187.91
2022-09-10T17:51:34.634Z,101182.81
2022-09-10T17:54:04.845Z,101178.78
2022-09-10T17:56:31.990Z,101187.19
2022-09-10T17:59:01.627Z,101190.59
2022-09-10T18:01:34.240Z,101187.03
2022-09-10T18:04:01.784Z,101189.56
2022-09-10T18:06:29.236Z,101194.63
2022-09-10T18:09:03.550Z,101194.22
2022-09-10T18:11:33.003Z,101203.47
2022-09-10T18:14:01.233Z,101200.53
2022-09-10T18:16:31.176Z,101198.78
2022-09-10T18:19:04.370Z,101199.47
2022-09-10T18:21:34.051Z,101200.28
2022-09-10T18:24:07.973Z,101197.94
2022-09-10T18:26:39.403Z,101206.69
2022-09-10T18:29:10.170Z,101206.63
2022-09-10T18:31:41.273Z,101208.03
2022-09-10T18:34:12.443Z,101207.69
2022-09-10T18:36:39.814Z,101206.88
2022-09-10T18:39:10.697Z,101224.38
2022-09-10T18:41:39.891Z,101230.34
2022-09-10T18:44:10.891Z,101236.44
2022-09-10T18:46:38.368Z,101237.00
2022-09-10T18:49:05.713Z,101245.78
2022-09-10T18:51:33.070Z,101246.06
2022-09-10T18:54:01.127Z,101248.72
2022-09-10T18:56:30.587Z,101241.94
2022-09-10T18:59:06.990Z,101253.56
2022-09-10T19:01:35.882Z,101254.03
2022-09-10T19:04:05.778Z,101255.69
2022-09-10T19:06:35.268Z,101262.56
2022-09-10T19:09:05.751Z,101271.75
2022-09-10T19:11:38.147Z,101266.03
2022-09-10T19:14:08.797Z,101272.38
2022-09-10T19:16:36.115Z,101275.91
2022-09-10T19:19:06.004Z,101281.56
2022-09-10T19:21:35.335Z,101279.44
2022-09-10T19:24:03.687Z,101277.84
2022-09-10T19:26:34.768Z,101291.31
2022-09-10T19:29:02.810Z,101282.94
2022-09-10T19:31:33.944Z,101297.91
2022-09-10T19:34:04.150Z,101292.16
2022-09-10T19:36:33.416Z,101300.97
2022-09-10T19:39:01.792Z,101298.72
2022-09-10T19:41:29.032Z,101298.38
2022-09-10T19:43:56.675Z,101292.75
2022-09-10T19:46:28.154Z,101298.13
2022-09-10T19:48:59.384Z,101293.09
2022-09-10T19:51:28.695Z,101301.69
2022-09-10T19:53:56.198Z,101295.84
2022-09-10T19:56:26.033Z,101294.50
2022-09-10T19:58:55.662Z,101292.53
2022-09-10T20:01:25.736Z,101292.94
2022-09-10T20:03:54.032Z,101300.31
2022-09-10T20:06:23.861Z,101298.59
2022-09-10T20:08:52.373Z,101294.16
2022-09-10T20:11:21.869Z,101294.19
2022-09-10T20:13:49.561Z,101290.50
2022-09-10T20:16:17.034Z,101302.47
2022-09-10T20:18:45.592Z,101303.09
2022-09-10T20:21:24.972Z,101295.75
2022-09-10T20:23:55.574Z,101299.47
2022-09-10T20:26:23.943Z,101300.50
2022-09-10T20:28:53.622Z,101303.03
2022-09-10T20:31:22.196Z,101296.38
2022-09-10T20:33:54.626Z,101302.84
2022-09-10T20:36:23.005Z,101301.63
2022-09-10T20:38:51.777Z,101296.19
2022-09-10T20:41:19.305Z,101303.69
2022-09-10T20:43:53.445Z,101303.56
2022-09-10T20:46:22.379Z,101299.44
2022-09-10T20:48:52.222Z,101309.41
2022-09-10T20:51:20.579Z,101303.19
2022-09-10T20:53:48.524Z,101305.88
2022-09-10T20:56:18.519Z,101311.00
2022-09-10T20:58:46.662Z,101315.09
2022-09-10T21:01:23.191Z,101314.78
2022-09-10T21:03:54.780Z,101317.72
2022-09-10T21:06:25.173Z,101321.59
2022-09-10T21:08:52.622Z,101322.69
2022-09-10T21:11:21.029Z,101318.44
2022-09-10T21:13:55.965Z,101325.22
2022-09-10T21:16:28.534Z,101325.00
2022-09-10T21:19:00.944Z,101318.91
2022-09-10T21:21:30.257Z,101322.56
2022-09-10T21:23:59.341Z,101330.69
2022-09-10T21:26:32.620Z,101325.31
2022-09-10T21:29:02.344Z,101327.13
2022-09-10T21:31:30.402Z,101329.47
2022-09-10T21:34:02.655Z,101327.47
2022-09-10T21:36:32.084Z,101327.44
2022-09-10T21:39:01.207Z,101333.09
2022-09-10T21:41:35.535Z,101324.59
2022-09-10T21:44:05.993Z,101333.22
2022-09-10T21:46:34.298Z,101321.72
2022-09-10T21:49:02.417Z,101317.50
2022-09-10T21:51:29.790Z,101321.00
2022-09-10T21:53:57.861Z,101322.28
2022-09-10T21:56:27.526Z,101318.50
2022-09-10T21:58:56.604Z,101325.00
2022-09-10T22:01:26.426Z,101332.13
2022-09-10T22:03:56.372Z,101331.81
2022-09-10T22:06:25.955Z,101335.19
2022-09-10T22:08:58.417Z,101328.59
2022-09-10T22:11:32.091Z,101337.63
2022-09-10T22:14:01.612Z,101330.34
2022-09-10T22:16:31.122Z,101336.72
2022-09-10T22:19:01.198Z,101345.69
2022-09-10T22:21:29.016Z,101347.31
2022-09-10T22:23:56.254Z,101347.44
2022-09-10T22:26:25.484Z,101346.59
2022-09-10T22:28:54.290Z,101356.97
2022-09-10T22:31:27.290Z,101354.47
2022-09-10T22:33:57.106Z,101368.22
2022-09-10T22:36:28.701Z,101362.59
2022-09-10T22:38:59.301Z,101373.56
2022-09-10T22:41:27.119Z,101366.34
2022-09-10T22:43:54.852Z,101371.00
2022-09-10T22:46:23.691Z,101366.47
2022-09-10T22:48:51.129Z,101375.53
2022-09-10T22:51:23.308Z,101375.91
2022-09-10T22:53:52.543Z,101367.88
2022-09-10T22:56:22.156Z,101370.78
2022-09-10T22:58:52.833Z,101375.78
2022-09-10T23:01:23.012Z,101378.56
2022-09-10T23:03:50.644Z,101365.28
2022-09-10T23:06:22.482Z,101374.25
2022-09-10T23:08:54.669Z,101371.69
2022-09-10T23:11:27.371Z,101368.56
2022-09-10T23:14:01.404Z,101374.84
2022-09-10T23:16:31.859Z,101373.31
2022-09-10T23:19:01.324Z,101378.78
2022-09-10T23:21:30.221Z,101386.00
2022-09-10T23:24:00.439Z,101388.91
2022-09-10T23:26:27.800Z,101394.94
2022-09-10T23:28:55.586Z,101398.53
2022-09-10T23:31:27.457Z,101399.47
2022-09-10T23:33:59.899Z,101405.25
2022-09-10T23:36:29.891Z,101405.50
2022-09-10T23:39:01.424Z,101403.06
2022-09-10T23:41:29.867Z,101404.66
2022-09-10T23:43:57.401Z,101407.81
2022-09-10T23:46:25.383Z,101403.03
2022-09-10T23:48:52.665Z,101409.84
2022-09-10T23:51:20.833Z,101412.19
2022-09-10T23:53:48.753Z,101410.72
2022-09-10T23:56:19.005Z,101413.41
2022-09-10T23:58:47.690Z,101414.31
